createdAt,value
2023-02-28T00:01:37.569Z,100707.95
2023-02-28T00:04:05.973Z,100704.98
2023-02-28T00:06:34.340Z,100709.06
2023-02-28T00:09:05.115Z,100711.37
2023-02-28T00:11:39.089Z,100713.55
2023-02-28T00:14:07.733Z,100714.92
2023-02-28T00:16:36.305Z,100714.25
2023-02-28T00:19:07.563Z,100716.81
2023-02-28T00:22:02.019Z,100715.45
2023-02-28T00:24:30.352Z,100723.69
2023-02-28T00:26:58.474Z,100719.46
2023-02-28T00:29:27.008Z,100715.90
2023-02-28T00:31:55.664Z,100713.83
2023-02-28T00:34:24.178Z,100721.05
2023-02-28T00:36:52.314Z,100720.70
2023-02-28T00:39:21.474Z,100715.23
2023-02-28T00:41:52.536Z,100716.90
2023-02-28T00:44:22.953Z,100715.27
2023-02-28T00:46:50.955Z,100712.15
2023-02-28T00:49:19.202Z,100711.14
2023-02-28T00:51:47.387Z,100712.95
2023-02-28T00:54:15.500Z,100714.45
2023-02-28T00:56:43.727Z,100712.97
2023-02-28T00:59:12.324Z,100714.95
2023-02-28T01:01:40.646Z,100718.72
2023-02-28T01:04:09.740Z,100720.20
2023-02-28T01:06:38.619Z,100719.72
2023-02-28T01:09:06.843Z,100713.66
2023-02-28T01:11:41.791Z,100717.22
2023-02-28T01:14:10.119Z,100714.48
2023-02-28T01:16:39.018Z,100718.08
2023-02-28T01:19:07.026Z,100713.88
2023-02-28T01:21:36.775Z,100719.67
2023-02-28T01:24:05.537Z,100719.02
2023-02-28T01:26:33.931Z,100719.30
2023-02-28T01:29:02.226Z,100728.38
2023-02-28T01:31:31.009Z,100724.89
2023-02-28T01:33:59.897Z,100722.13
2023-02-28T01:36:31.892Z,100724.13
2023-02-28T01:39:00.190Z,100721.39
2023-02-28T01:41:30.766Z,100721.27
2023-02-28T01:44:06.852Z,100722.84
2023-02-28T01:46:36.220Z,100727.01
2023-02-28T01:49:10.827Z,100726.54
2023-02-28T01:51:46.753Z,100727.27
2023-02-28T01:54:18.100Z,100730.98
2023-02-28T01:56:54.061Z,100727.64
2023-02-28T01:59:34.436Z,100731.38
2023-02-28T02:02:03.556Z,100733.27
2023-02-28T02:04:38.671Z,100726.96
2023-02-28T02:07:06.704Z,100729.63
2023-02-28T02:09:34.792Z,100730.14
2023-02-28T02:12:07.200Z,100733.02
2023-02-28T02:15:09.248Z,100730.38
2023-02-28T02:17:45.788Z,100736.40
2023-02-28T02:20:25.549Z,100739.61
2023-02-28T02:23:09.566Z,100737.05
2023-02-28T02:26:03.536Z,100739.77
2023-02-28T02:28:54.747Z,100743.36
2023-02-28T02:31:53.240Z,100745.14
2023-02-28T02:34:48.644Z,100745.58
2023-02-28T02:37:40.810Z,100750.34
2023-02-28T02:40:12.525Z,100755.21
2023-02-28T02:42:58.061Z,100755.86
2023-02-28T02:45:47.247Z,100759.15
2023-02-28T02:48:18.057Z,100758.92
2023-02-28T02:50:53.757Z,100758.11
2023-02-28T02:53:25.379Z,100757.98
2023-02-28T02:55:55.538Z,100761.02
2023-02-28T02:58:32.083Z,100761.92
2023-02-28T03:01:01.866Z,100767.65
2023-02-28T03:03:30.920Z,100768.87
2023-02-28T03:06:00.586Z,100771.65
2023-02-28T03:08:29.560Z,100768.84
2023-02-28T03:10:59.811Z,100770.36
2023-02-28T03:13:50.764Z,100771.40
2023-02-28T03:16:32.925Z,100772.16
2023-02-28T03:19:14.306Z,100773.53
2023-02-28T03:22:00.731Z,100773.86
2023-02-28T03:24:44.616Z,100774.73
2023-02-28T03:28:20.830Z,100780.20
2023-02-28T03:30:57.130Z,100785.59
2023-02-28T03:33:29.293Z,100783.92
2023-02-28T03:36:10.411Z,100785.13
2023-02-28T03:39:17.468Z,100794.76
2023-02-28T03:41:58.481Z,100792.41
2023-02-28T03:44:31.678Z,100794.02
2023-02-28T03:47:32.359Z,100790.29
2023-02-28T03:50:09.410Z,100792.48
2023-02-28T03:52:43.237Z,100793.45
2023-02-28T03:55:12.059Z,100796.39
2023-02-28T03:57:52.848Z,100792.63
2023-02-28T04:00:22.875Z,100791.81
2023-02-28T04:02:53.825Z,100793.94
2023-02-28T04:05:25.614Z,100792.95
2023-02-28T04:07:55.155Z,100797.75
2023-02-28T04:10:24.270Z,100794.66
2023-02-28T04:12:55.021Z,100799.34
2023-02-28T04:15:25.747Z,100791.65
2023-02-28T04:17:55.442Z,100788.01
2023-02-28T04:20:24.396Z,100784.73
2023-02-28T04:22:52.538Z,100788.51
2023-02-28T04:25:20.603Z,100792.59
2023-02-28T04:27:55.646Z,100793.94
2023-02-28T04:30:23.726Z,100794.88
2023-02-28T04:32:52.241Z,100793.52
2023-02-28T04:35:20.310Z,100793.73
2023-02-28T04:37:48.443Z,100797.92
2023-02-28T04:40:19.081Z,100803.95
2023-02-28T04:42:47.416Z,100805.75
2023-02-28T04:45:15.558Z,100812.74
2023-02-28T04:47:43.828Z,100811.48
2023-02-28T04:50:11.980Z,100813.78
2023-02-28T04:52:42.815Z,100816.89
2023-02-28T04:55:11.462Z,100819.33
2023-02-28T04:57:39.807Z,100818.17
2023-02-28T05:00:12.604Z,100818.09
2023-02-28T05:02:41.389Z,100817.09
2023-02-28T05:05:09.501Z,100815.41
2023-02-28T05:07:37.567Z,100816.45
2023-02-28T05:10:30.835Z,100816.41
2023-02-28T05:12:59.410Z,100817.80
2023-02-28T05:15:27.474Z,100815.98
2023-02-28T05:17:55.586Z,100820.45
2023-02-28T05:20:23.767Z,100823.16
2023-02-28T05:22:53.837Z,100824.15
2023-02-28T05:25:23.230Z,100827.89
2023-02-28T05:27:51.940Z,100824.84
2023-02-28T05:30:22.364Z,100827.20
2023-02-28T05:32:52.989Z,100828.23
2023-02-28T05:35:21.019Z,100830.00
2023-02-28T05:37:49.450Z,100825.79
2023-02-28T05:40:21.582Z,100826.84
2023-02-28T05:42:51.751Z,100832.89
2023-02-28T05:45:19.798Z,100832.52
2023-02-28T05:47:47.903Z,100833.36
2023-02-28T05:50:16.968Z,100834.27
2023-02-28T05:52:45.076Z,100834.15
2023-02-28T05:55:13.695Z,100839.08
2023-02-28T05:57:43.584Z,100844.51
2023-02-28T06:00:13.328Z,100848.88
2023-02-28T06:02:41.672Z,100848.98
2023-02-28T06:05:19.073Z,100848.06
2023-02-28T06:07:47.204Z,100843.79
2023-02-28T06:10:16.899Z,100845.95
2023-02-28T06:12:45.355Z,100849.98
2023-02-28T06:15:17.792Z,100856.48
2023-02-28T06:17:45.881Z,100858.55
2023-02-28T06:20:14.523Z,100859.65
2023-02-28T06:22:46.780Z,100860.82
2023-02-28T06:25:14.988Z,100860.21
2023-02-28T06:27:44.273Z,100856.78
2023-02-28T06:30:12.924Z,100855.06
2023-02-28T06:32:41.492Z,100855.98
2023-02-28T06:35:09.775Z,100851.50
2023-02-28T06:37:40.153Z,100851.96
2023-02-28T06:40:11.295Z,100856.30
2023-02-28T06:42:44.109Z,100860.83
2023-02-28T06:45:12.440Z,100857.84
2023-02-28T06:47:41.162Z,100857.85
2023-02-28T06:50:11.195Z,100854.25
2023-02-28T06:52:41.610Z,100855.69
2023-02-28T06:55:12.819Z,100849.39
2023-02-28T06:57:42.176Z,100851.22
2023-02-28T07:00:11.527Z,100846.75
2023-02-28T07:02:40.372Z,100847.38
2023-02-28T07:05:09.018Z,100848.23
2023-02-28T07:07:39.752Z,100845.73
2023-02-28T07:10:08.601Z,100847.18
2023-02-28T07:12:37.471Z,100845.05
2023-02-28T07:15:06.946Z,100845.95
2023-02-28T07:17:35.241Z,100848.49
2023-02-28T07:20:06.817Z,100846.05
2023-02-28T07:22:35.384Z,100845.44
2023-02-28T07:25:03.680Z,100841.45
2023-02-28T07:27:32.180Z,100843.56
2023-02-28T07:30:02.719Z,100844.95
2023-02-28T07:32:31.057Z,100844.85
2023-02-28T07:34:59.204Z,100844.21
2023-02-28T07:37:27.207Z,100842.67
2023-02-28T07:39:55.508Z,100840.13
2023-02-28T07:42:23.567Z,100839.69
2023-02-28T07:44:54.578Z,100837.52
2023-02-28T07:47:25.326Z,100840.50
2023-02-28T07:49:53.878Z,100844.95
2023-02-28T07:52:22.186Z,100847.66
2023-02-28T07:54:53.451Z,100847.05
2023-02-28T07:57:21.664Z,100847.09
2023-02-28T07:59:52.544Z,100847.60
2023-02-28T08:02:21.137Z,100851.09
2023-02-28T08:04:52.584Z,100850.00
2023-02-28T08:07:21.849Z,100847.03
2023-02-28T08:09:53.017Z,100842.02
2023-02-28T08:12:21.224Z,100838.44
2023-02-28T08:14:49.286Z,100837.06
2023-02-28T08:17:17.690Z,100841.73
2023-02-28T08:19:48.837Z,100836.68
2023-02-28T08:22:20.725Z,100846.95
2023-02-28T08:24:50.346Z,100849.11
2023-02-28T08:27:18.555Z,100848.40
2023-02-28T08:29:48.291Z,100841.27
2023-02-28T08:32:29.317Z,100839.52
2023-02-28T08:34:58.986Z,100840.19
2023-02-28T08:37:27.354Z,100837.64
2023-02-28T08:39:56.777Z,100843.66
2023-02-28T08:42:25.432Z,100841.69
2023-02-28T08:44:58.896Z,100840.70
2023-02-28T08:47:27.566Z,100839.96
2023-02-28T08:50:06.374Z,100834.77
2023-02-28T08:52:35.551Z,100833.36
2023-02-28T08:55:03.813Z,100838.11
2023-02-28T08:57:33.228Z,100840.73
2023-02-28T09:00:05.338Z,100838.94
2023-02-28T09:02:35.423Z,100842.25
2023-02-28T09:05:04.162Z,100840.05
2023-02-28T09:07:32.697Z,100838.81
2023-02-28T09:10:02.769Z,100832.84
2023-02-28T09:12:34.586Z,100835.50
2023-02-28T09:15:05.746Z,100831.05
2023-02-28T09:17:34.498Z,100830.58
2023-02-28T09:20:03.999Z,100830.29
2023-02-28T09:22:34.519Z,100831.88
2023-02-28T09:25:02.558Z,100829.80
2023-02-28T09:27:30.962Z,100832.48
2023-02-28T09:29:59.291Z,100828.86
2023-02-28T09:32:30.363Z,100829.54
2023-02-28T09:34:58.931Z,100824.89
2023-02-28T09:37:32.024Z,100821.67
2023-02-28T09:40:00.580Z,100824.27
2023-02-28T09:42:33.302Z,100823.36
2023-02-28T09:45:04.014Z,100824.91
2023-02-28T09:47:36.195Z,100811.75
2023-02-28T09:50:14.221Z,100812.11
2023-02-28T09:52:42.939Z,100806.41
2023-02-28T09:55:16.399Z,100810.50
2023-02-28T09:57:45.932Z,100805.48
2023-02-28T10:00:40.765Z,100796.15
2023-02-28T10:03:31.340Z,100791.63
2023-02-28T10:06:09.811Z,100792.19
2023-02-28T10:08:46.441Z,100787.78
2023-02-28T10:11:17.683Z,100786.58
2023-02-28T10:14:22.693Z,100782.36
2023-02-28T10:16:58.662Z,100782.97
2023-02-28T10:19:40.145Z,100780.73
2023-02-28T10:22:24.061Z,100768.90
2023-02-28T10:24:53.631Z,100775.98
2023-02-28T10:27:25.814Z,100771.17
2023-02-28T10:29:55.781Z,100764.89
2023-02-28T10:32:26.527Z,100762.19
2023-02-28T10:35:18.640Z,100763.95
2023-02-28T10:37:48.887Z,100767.02
2023-02-28T10:40:20.811Z,100761.95
2023-02-28T10:42:59.780Z,100761.02
2023-02-28T10:45:33.254Z,100753.42
2023-02-28T10:48:13.627Z,100753.18
2023-02-28T10:50:50.849Z,100755.85
2023-02-28T10:53:36.030Z,100747.92
2023-02-28T10:56:13.768Z,100756.67
2023-02-28T10:58:54.181Z,100752.83
2023-02-28T11:01:24.810Z,100748.65
2023-02-28T11:03:53.953Z,100741.45
2023-02-28T11:06:35.326Z,100741.07
2023-02-28T11:09:15.688Z,100737.42
2023-02-28T11:11:48.634Z,100735.66
2023-02-28T11:14:27.438Z,100728.52
2023-02-28T11:16:55.862Z,100725.27
2023-02-28T11:19:26.626Z,100729.42
2023-02-28T11:22:05.970Z,100729.27
2023-02-28T11:24:45.569Z,100725.23
2023-02-28T11:27:40.732Z,100728.85
2023-02-28T11:30:39.711Z,100719.57
2023-02-28T11:33:28.611Z,100720.48
2023-02-28T11:36:00.179Z,100712.85
2023-02-28T11:38:28.454Z,100710.15
2023-02-28T11:41:05.112Z,100710.48
2023-02-28T11:43:51.622Z,100705.66
2023-02-28T11:46:22.532Z,100707.59
2023-02-28T11:49:04.088Z,100707.30
2023-02-28T11:51:36.658Z,100707.77
2023-02-28T11:54:30.446Z,100700.13
2023-02-28T11:57:08.000Z,100703.76
2023-02-28T11:59:55.753Z,100705.14
2023-02-28T12:02:49.185Z,100708.01
2023-02-28T12:05:39.405Z,100704.90
2023-02-28T12:08:22.829Z,100700.52
2023-02-28T12:11:18.940Z,100696.54
2023-02-28T12:14:02.109Z,100684.44
2023-02-28T12:16:59.049Z,100684.98
2023-02-28T12:19:41.944Z,100684.73
2023-02-28T12:22:32.485Z,100677.92
2023-02-28T12:25:10.377Z,100677.08
2023-02-28T12:27:41.708Z,100681.64
2023-02-28T12:30:31.294Z,100668.75
2023-02-28T12:33:08.977Z,100670.80
2023-02-28T12:35:58.118Z,100673.12
2023-02-28T12:38:36.047Z,100666.88
2023-02-28T12:41:10.051Z,100660.28
2023-02-28T12:43:40.995Z,100666.22
2023-02-28T12:46:12.748Z,100664.61
2023-02-28T12:49:14.586Z,100666.66
2023-02-28T12:51:43.410Z,100659.34
2023-02-28T12:54:30.523Z,100653.73
2023-02-28T12:57:05.044Z,100651.29
2023-02-28T12:59:49.076Z,100642.80
2023-02-28T13:02:20.469Z,100648.05
2023-02-28T13:04:59.270Z,100642.27
2023-02-28T13:07:36.633Z,100636.21
2023-02-28T13:10:05.910Z,100632.39
2023-02-28T13:12:36.178Z,100633.48
2023-02-28T13:15:13.130Z,100627.82
2023-02-28T13:17:42.672Z,100631.28
2023-02-28T13:20:29.843Z,100627.00
2023-02-28T13:23:02.345Z,100626.58
2023-02-28T13:25:42.823Z,100622.88
2023-02-28T13:28:12.862Z,100622.66
2023-02-28T13:31:05.485Z,100618.86
2023-02-28T13:33:45.345Z,100604.40
2023-02-28T13:36:17.186Z,100616.52
2023-02-28T13:38:50.213Z,100610.77
2023-02-28T13:41:31.257Z,100608.13
2023-02-28T13:44:24.258Z,100605.82
2023-02-28T13:46:52.806Z,100603.21
2023-02-28T13:49:35.123Z,100601.46
2023-02-28T13:52:17.909Z,100600.27
2023-02-28T13:55:19.106Z,100600.58
2023-02-28T13:58:05.642Z,100592.75
2023-02-28T14:00:46.865Z,100587.41
2023-02-28T14:03:36.619Z,100591.14
2023-02-28T14:06:14.783Z,100585.91
2023-02-28T14:08:52.164Z,100578.36
2023-02-28T14:11:28.004Z,100574.64
2023-02-28T14:13:56.685Z,100574.93
2023-02-28T14:16:27.942Z,100570.48
2023-02-28T14:19:01.644Z,100563.42
2023-02-28T14:21:33.556Z,100562.06
2023-02-28T14:24:51.013Z,100556.30
2023-02-28T14:27:43.739Z,100552.17
2023-02-28T14:30:52.602Z,100549.84
2023-02-28T14:33:31.283Z,100554.55
2023-02-28T14:36:13.692Z,100552.35
2023-02-28T14:38:56.594Z,100542.11
2023-02-28T14:41:30.727Z,100542.98
2023-02-28T14:44:02.376Z,100534.29
2023-02-28T14:46:38.487Z,100532.01
2023-02-28T14:49:08.291Z,100526.84
2023-02-28T14:51:39.313Z,100527.30
2023-02-28T14:54:07.787Z,100522.41
2023-02-28T14:56:38.600Z,100520.13
2023-02-28T14:59:20.272Z,100516.02
2023-02-28T15:01:48.424Z,100516.13
2023-02-28T15:04:25.975Z,100516.67
2023-02-28T15:07:15.630Z,100513.77
2023-02-28T15:09:46.949Z,100514.40
2023-02-28T15:12:15.472Z,100511.83
2023-02-28T15:14:44.351Z,100510.83
2023-02-28T15:17:18.616Z,100512.66
2023-02-28T15:19:53.461Z,100516.23
2023-02-28T15:22:30.974Z,100520.86
2023-02-28T15:24:59.165Z,100518.64
2023-02-28T15:27:29.246Z,100509.25
2023-02-28T15:30:01.911Z,100501.25
2023-02-28T15:32:35.199Z,100496.95
2023-02-28T15:35:26.349Z,100499.58
2023-02-28T15:37:58.546Z,100496.48
2023-02-28T15:40:59.326Z,100502.90
2023-02-28T15:43:34.082Z,100505.54
2023-02-28T15:46:06.348Z,100509.20
2023-02-28T15:48:46.008Z,100517.41
2023-02-28T15:51:27.318Z,100515.27
2023-02-28T15:53:58.867Z,100521.00
2023-02-28T15:56:34.564Z,100520.61
2023-02-28T15:59:07.858Z,100522.83
2023-02-28T16:01:39.914Z,100526.90
2023-02-28T16:04:16.728Z,100529.50
2023-02-28T16:07:02.043Z,100534.86
2023-02-28T16:09:35.206Z,100539.52
2023-02-28T16:12:04.390Z,100542.77
2023-02-28T16:14:32.765Z,100544.77
2023-02-28T16:17:06.097Z,100541.08
2023-02-28T16:19:34.812Z,100543.49
2023-02-28T16:22:06.956Z,100540.07
2023-02-28T16:24:36.287Z,100539.48
2023-02-28T16:27:04.533Z,100541.84
2023-02-28T16:29:37.667Z,100539.98
2023-02-28T16:32:06.449Z,100540.91
2023-02-28T16:34:37.707Z,100543.23
2023-02-28T16:37:11.047Z,100538.52
2023-02-28T16:39:40.928Z,100538.51
2023-02-28T16:42:24.579Z,100541.02
2023-02-28T16:44:53.404Z,100540.23
2023-02-28T16:47:22.277Z,100544.55
2023-02-28T16:49:50.802Z,100541.39
2023-02-28T16:52:19.278Z,100543.38
2023-02-28T16:54:47.485Z,100538.59
2023-02-28T16:57:22.626Z,100536.45
2023-02-28T16:59:51.984Z,100532.27
2023-02-28T17:02:23.356Z,100534.77
2023-02-28T17:04:51.973Z,100535.58
2023-02-28T17:07:20.063Z,100531.47
2023-02-28T17:09:48.655Z,100529.88
2023-02-28T17:12:20.507Z,100530.30
2023-02-28T17:14:48.724Z,100524.06
2023-02-28T17:17:19.421Z,100521.10
2023-02-28T17:19:47.909Z,100523.16
2023-02-28T17:22:39.992Z,100516.59
2023-02-28T17:25:09.936Z,100507.76
2023-02-28T17:27:40.736Z,100510.54
2023-02-28T17:30:15.827Z,100515.32
2023-02-28T17:32:49.501Z,100509.92
2023-02-28T17:35:17.983Z,100509.88
2023-02-28T17:37:46.878Z,100503.50
2023-02-28T17:40:20.971Z,100507.36
2023-02-28T17:42:49.500Z,100517.34
2023-02-28T17:45:17.773Z,100523.59
2023-02-28T17:47:50.352Z,100524.16
2023-02-28T17:50:24.245Z,100529.37
2023-02-28T17:52:52.442Z,100531.88
2023-02-28T17:55:20.640Z,100533.45
2023-02-28T17:57:48.761Z,100537.63
2023-02-28T18:00:19.027Z,100534.37
2023-02-28T18:02:48.184Z,100537.56
2023-02-28T18:05:20.689Z,100537.83
2023-02-28T18:07:49.410Z,100537.25
2023-02-28T18:10:22.586Z,100537.37
2023-02-28T18:12:54.971Z,100538.66
2023-02-28T18:15:23.399Z,100543.31
2023-02-28T18:17:53.491Z,100548.39
2023-02-28T18:20:22.559Z,100547.28
2023-02-28T18:22:53.764Z,100541.48
2023-02-28T18:25:23.625Z,100541.85
2023-02-28T18:27:58.240Z,100539.46
2023-02-28T18:30:31.737Z,100543.80
2023-02-28T18:33:01.453Z,100547.68
2023-02-28T18:35:36.930Z,100550.73
2023-02-28T18:38:11.418Z,100547.54
2023-02-28T18:40:39.659Z,100539.10
2023-02-28T18:43:08.891Z,100537.11
2023-02-28T18:45:38.663Z,100528.52
2023-02-28T18:48:06.974Z,100526.33
2023-02-28T18:50:37.960Z,100530.17
2023-02-28T18:53:09.451Z,100529.80
2023-02-28T18:55:38.650Z,100525.42
2023-02-28T18:58:08.245Z,100532.50
2023-02-28T19:00:36.995Z,100538.73
2023-02-28T19:03:05.096Z,100536.96
2023-02-28T19:05:40.082Z,100530.41
2023-02-28T19:08:10.875Z,100523.52
2023-02-28T19:10:41.083Z,100528.21
2023-02-28T19:13:09.307Z,100529.86
2023-02-28T19:15:38.651Z,100530.19
2023-02-28T19:18:07.101Z,100523.64
2023-02-28T19:20:37.401Z,100517.83
2023-02-28T19:23:05.516Z,100513.52
2023-02-28T19:25:33.754Z,100507.28
2023-02-28T19:28:01.882Z,100505.67
2023-02-28T19:30:30.355Z,100502.79
2023-02-28T19:33:03.666Z,100494.02
2023-02-28T19:35:32.050Z,100487.56
2023-02-28T19:38:00.612Z,100492.61
2023-02-28T19:40:28.987Z,100492.56
2023-02-28T19:42:57.964Z,100498.45
2023-02-28T19:45:26.025Z,100504.56
2023-02-28T19:47:56.933Z,100509.36
2023-02-28T19:50:25.199Z,100504.32
2023-02-28T19:52:53.413Z,100504.34
2023-02-28T19:55:22.088Z,100497.50
2023-02-28T19:57:50.271Z,100493.89
2023-02-28T20:00:21.937Z,100496.23
2023-02-28T20:02:56.424Z,100492.19
2023-02-28T20:05:25.515Z,100481.63
2023-02-28T20:07:53.951Z,100479.82
2023-02-28T20:10:22.118Z,100484.05
2023-02-28T20:12:50.979Z,100483.34
2023-02-28T20:15:19.886Z,100483.90
2023-02-28T20:17:48.992Z,100474.27
2023-02-28T20:20:30.811Z,100478.30
2023-02-28T20:22:59.729Z,100478.77
2023-02-28T20:25:28.532Z,100478.82
2023-02-28T20:27:57.262Z,100480.61
2023-02-28T20:30:25.345Z,100480.77
2023-02-28T20:32:53.702Z,100483.55
2023-02-28T20:35:27.205Z,100482.40
2023-02-28T20:37:56.056Z,100482.36
2023-02-28T20:40:24.252Z,100479.27
2023-02-28T20:42:52.324Z,100480.44
2023-02-28T20:45:20.683Z,100472.49
2023-02-28T20:47:48.933Z,100459.88
2023-02-28T20:50:28.442Z,100456.54
2023-02-28T20:52:57.897Z,100457.33
2023-02-28T20:55:26.125Z,100460.54
2023-02-28T20:57:54.532Z,100461.23
2023-02-28T21:00:23.105Z,100456.81
2023-02-28T21:02:51.151Z,100458.73
2023-02-28T21:05:19.571Z,100454.65
2023-02-28T21:07:47.947Z,100450.08
2023-02-28T21:10:16.919Z,100454.55
2023-02-28T21:12:45.461Z,100451.11
2023-02-28T21:15:13.559Z,100446.20
2023-02-28T21:17:43.892Z,100436.27
2023-02-28T21:20:12.575Z,100433.39
2023-02-28T21:22:42.330Z,100427.77
2023-02-28T21:25:10.503Z,100420.97
2023-02-28T21:27:38.838Z,100416.21
2023-02-28T21:30:08.117Z,100411.77
2023-02-28T21:32:36.910Z,100408.30
2023-02-28T21:35:06.186Z,100405.32
2023-02-28T21:37:37.188Z,100407.30
2023-02-28T21:40:05.631Z,100400.98
2023-02-28T21:42:34.276Z,100396.67
2023-02-28T21:45:03.308Z,100394.27
2023-02-28T21:47:33.335Z,100392.48
2023-02-28T21:50:01.515Z,100388.77
2023-02-28T21:52:29.725Z,100388.86
2023-02-28T21:54:58.042Z,100382.05
2023-02-28T21:57:32.362Z,100381.72
2023-02-28T22:00:01.984Z,100378.61
2023-02-28T22:02:40.484Z,100372.70
2023-02-28T22:05:08.994Z,100369.62
2023-02-28T22:07:37.143Z,100370.45
2023-02-28T22:10:06.032Z,100371.14
2023-02-28T22:12:34.936Z,100375.80
2023-02-28T22:15:03.094Z,100377.91
2023-02-28T22:17:32.069Z,100372.59
2023-02-28T22:20:02.824Z,100366.59
2023-02-28T22:22:37.094Z,100361.77
2023-02-28T22:25:06.569Z,100366.08
2023-02-28T22:27:34.700Z,100359.21
2023-02-28T22:30:03.028Z,100363.20
2023-02-28T22:32:34.076Z,100366.49
2023-02-28T22:35:02.388Z,100364.73
2023-02-28T22:37:34.940Z,100358.30
2023-02-28T22:40:07.725Z,100359.67
2023-02-28T22:42:38.882Z,100360.27
2023-02-28T22:45:09.874Z,100369.16
2023-02-28T22:47:38.767Z,100365.70
2023-02-28T22:50:10.638Z,100365.95
2023-02-28T22:52:41.210Z,100361.17
2023-02-28T22:55:10.054Z,100359.77
2023-02-28T22:57:38.637Z,100362.37
2023-02-28T23:00:09.821Z,100361.44
2023-02-28T23:02:38.467Z,100366.06
2023-02-28T23:05:06.754Z,100370.64
2023-02-28T23:07:38.771Z,100372.75
2023-02-28T23:10:10.942Z,100369.34
2023-02-28T23:12:50.332Z,100363.27
2023-02-28T23:15:19.157Z,100362.23
2023-02-28T23:17:47.856Z,100355.11
2023-02-28T23:20:18.308Z,100351.96
2023-02-28T23:22:50.706Z,100349.30
2023-02-28T23:25:22.408Z,100349.21
2023-02-28T23:27:50.563Z,100348.55
2023-02-28T23:30:19.054Z,100340.23
2023-02-28T23:32:47.701Z,100337.75
2023-02-28T23:35:17.021Z,100336.92
2023-02-28T23:37:45.330Z,100325.39
2023-02-28T23:40:14.499Z,100321.41
2023-02-28T23:42:45.521Z,100321.29
2023-02-28T23:45:13.836Z,100321.55
2023-02-28T23:47:47.482Z,100322.18
2023-02-28T23:50:16.273Z,100319.98
2023-02-28T23:52:44.377Z,100309.48
2023-02-28T23:55:12.707Z,100307.80
2023-02-28T23:57:40.889Z,100317.62
